Time;durP1;ratioP1;P1;durP2;ratioP2;P2;SDS_P1;SDS_P2;PMS_P1;PMS_P2;Temp;Humidity;BMP_temperature;BMP_pressure;BME280_temperature;BME280_humidity;BME280_pressure;Samples;Min_cycle;Max_cycle;Signal;HPM_P1;HPM_P2
2023/01/12 00:02:04;;;;;;;;;;;;;;;6.20;100.00;101165.97;4987850;28;20020;-77
2023/01/12 00:04:32;;;;;;;;;;;;;;;6.16;100.00;101169.75;5005667;28;20396;-77
2023/01/12 00:06:57;;;;;;;;;;;;;;;6.18;100.00;101160.84;4988605;28;19922;-77
2023/01/12 00:09:23;;;;;;;;;;;;;;;6.17;100.00;101153.94;5006445;28;19944;-77
2023/01/12 00:11:48;;;;;;;;;;;;;;;6.17;100.00;101132.97;5005783;28;19972;-77
2023/01/12 00:14:14;;;;;;;;;;;;;;;6.21;100.00;101111.78;5004900;28;19940;-77
2023/01/12 00:16:42;;;;;;;;;;;;;;;6.27;100.00;101112.16;4995284;28;19977;-77
2023/01/12 00:19:12;;;;;;;;;;;;;;;6.32;100.00;101112.63;5027933;28;20003;-77
2023/01/12 00:21:55;;;;;;;;;;;;;;;6.34;100.00;101118.59;4997996;28;19933;-77
2023/01/12 00:24:20;;;;;;;;;;;;;;;6.39;100.00;101121.69;5004589;28;20013;-77
2023/01/12 00:26:46;;;;;;;;;;;;;;;6.42;100.00;101130.28;5027788;28;20001;-77
2023/01/12 00:29:11;;;;;;;;;;;;;;;6.43;100.00;101143.28;4996052;28;19918;-77
2023/01/12 00:31:37;;;;;;;;;;;;;;;6.43;100.00;101143.28;4996158;28;20510;-77
2023/01/12 00:34:02;;;;;;;;;;;;;;;6.39;100.00;101160.19;4997087;28;20009;-76
2023/01/12 00:36:27;;;;;;;;;;;;;;;6.28;100.00;101144.44;4995817;28;19918;-77
2023/01/12 00:38:53;;;;;;;;;;;;;;;6.26;100.00;101162.88;4998204;28;19929;-77
2023/01/12 00:46:49;;;;;;;;;;;;;;;6.31;100.00;101171.25;4995878;28;20072;-77
2023/01/12 00:49:14;;;;;;;;;;;;;;;6.39;100.00;101186.41;5013594;28;20408;-78
2023/01/12 00:51:40;;;;;;;;;;;;;;;6.47;100.00;101202.41;4996524;28;19941;-78
2023/01/12 00:54:07;;;;;;;;;;;;;;;6.55;100.00;101226.28;4998156;28;19917;-77
2023/01/12 00:56:35;;;;;;;;;;;;;;;6.58;100.00;101241.78;4997323;28;19966;-78
2023/01/12 00:59:00;;;;;;;;;;;;;;;6.60;100.00;101244.28;4996715;28;19921;-78
2023/01/12 01:01:26;;;;;;;;;;;;;;;6.59;100.00;101245.22;4996291;28;19924;-78
2023/01/12 01:03:51;;;;;;;;;;;;;;;6.55;100.00;101256.91;4996989;28;20044;-78
2023/01/12 01:06:16;;;;;;;;;;;;;;;6.55;100.00;101252.50;4996775;28;20032;-78
2023/01/12 01:08:42;;;;;;;;;;;;;;;6.52;100.00;101246.66;4996643;28;19917;-78
2023/01/12 01:11:08;;;;;;;;;;;;;;;6.48;100.00;101251.28;4997158;28;20329;-78
2023/01/12 01:13:39;;;;;;;;;;;;;;;6.46;100.00;101239.22;5028330;28;20453;-78
2023/01/12 01:16:05;;;;;;;;;;;;;;;6.38;100.00;101230.16;4996442;28;19922;-78
2023/01/12 01:18:30;;;;;;;;;;;;;;;6.41;100.00;101238.75;4995712;28;19918;-78
2023/01/12 01:20:56;;;;;;;;;;;;;;;6.35;100.00;101227.75;4996384;28;19932;-78
2023/01/12 01:23:22;;;;;;;;;;;;;;;6.36;100.00;101228.59;4995597;28;19918;-78
2023/01/12 01:25:47;;;;;;;;;;;;;;;6.36;100.00;101231.22;4997688;28;20397;-78
2023/01/12 01:28:13;;;;;;;;;;;;;;;6.39;100.00;101228.34;4994924;28;20012;-78
2023/01/12 01:30:39;;;;;;;;;;;;;;;6.41;100.00;101236.94;4995212;28;20036;-78
2023/01/12 01:33:04;;;;;;;;;;;;;;;6.47;100.00;101238.28;4995737;28;20012;-77
2023/01/12 01:35:29;;;;;;;;;;;;;;;6.53;100.00;101233.44;4996001;28;19975;-78
2023/01/12 01:37:54;;;;;;;;;;;;;;;6.59;100.00;101232.94;4995311;28;19921;-78
2023/01/12 01:40:20;;;;;;;;;;;;;;;6.62;100.00;101242.41;4996577;28;20032;-78
2023/01/12 01:42:45;;;;;;;;;;;;;;;6.63;100.00;101233.56;4996623;28;19922;-78
2023/01/12 01:45:11;;;;;;;;;;;;;;;6.67;100.00;101226.31;4994723;28;19932;-78
2023/01/12 01:47:41;;;;;;;;;;;;;;;6.72;100.00;101226.78;4996869;28;19924;-78
2023/01/12 01:50:24;;;;;;;;;;;;;;;6.72;100.00;101216.28;4996132;28;20396;-78
2023/01/12 01:52:53;;;;;;;;;;;;;;;6.74;100.00;101212.59;4996387;28;19918;-78
2023/01/12 01:55:24;;;;;;;;;;;;;;;6.74;100.00;101198.66;5027660;28;19918;-78
2023/01/12 01:57:49;;;;;;;;;;;;;;;6.68;100.00;101184.22;4993744;28;19953;-78
2023/01/12 02:00:15;;;;;;;;;;;;;;;6.71;100.00;101180.53;4994721;28;20007;-78
2023/01/12 02:02:41;;;;;;;;;;;;;;;6.71;100.00;101170.88;4994980;28;19914;-78
2023/01/12 02:05:07;;;;;;;;;;;;;;;6.71;100.00;101168.25;4996144;28;19918;-78
2023/01/12 02:07:32;;;;;;;;;;;;;;;6.78;100.00;101158.13;4995596;28;19918;-78
2023/01/12 02:09:58;;;;;;;;;;;;;;;6.83;100.00;101153.34;4995590;28;20012;-77
2023/01/12 02:17:59;;;;;;;;;;;;;;;6.80;100.00;101140.47;4995122;28;19991;-77
2023/01/12 02:20:27;;;;;;;;;;;;;;;6.83;100.00;101137.59;4994061;28;19980;-78
2023/01/12 02:23:04;;;;;;;;;;;;;;;6.81;100.00;101126.41;4994812;28;19970;-78
2023/01/12 02:25:36;;;;;;;;;;;;;;;6.79;100.00;101117.81;5002837;28;19936;-78
2023/01/12 02:28:19;;;;;;;;;;;;;;;6.76;100.00;101118.06;4994743;28;19935;-78
2023/01/12 02:31:04;;;;;;;;;;;;;;;6.77;100.00;101131.06;4994420;28;19988;-78
2023/01/12 02:33:32;;;;;;;;;;;;;;;6.78;100.00;101127.47;4994780;28;19917;-78
2023/01/12 02:36:04;;;;;;;;;;;;;;;6.80;100.00;101120.31;4994128;28;19929;-78
2023/01/12 02:38:45;;;;;;;;;;;;;;;6.82;100.00;101117.59;4993626;28;19928;-78
2023/01/12 02:42:39;;;;;;;;;;;;;;;6.88;100.00;101116.25;4994458;28;19926;-77
2023/01/12 02:44:06;;;;;;;;;;;;;;;6.93;100.00;101107.09;4993944;28;20309;-75
2023/01/12 02:46:32;;;;;;;;;;;;;;;6.92;100.00;101113.28;4994498;28;20407;-79
2023/01/12 02:49:07;;;;;;;;;;;;;;;6.94;100.00;101111.38;5008720;28;19929;-76
2023/01/12 02:51:36;;;;;;;;;;;;;;;6.96;100.00;101108.63;4995461;28;20361;-77
2023/01/12 02:54:04;;;;;;;;;;;;;;;6.96;100.00;101117.34;4993406;28;19964;-78
2023/01/12 02:56:36;;;;;;;;;;;;;;;6.94;100.00;101127.09;4995085;28;19918;-77
2023/01/12 02:59:04;;;;;;;;;;;;;;;6.92;100.00;101131.63;5024291;28;19969;-76
2023/01/12 03:01:32;;;;;;;;;;;;;;;6.94;100.00;101158.59;4994284;28;19967;-77
2023/01/12 03:04:00;;;;;;;;;;;;;;;6.93;100.00;101167.44;4995257;28;19928;-77
2023/01/12 03:06:36;;;;;;;;;;;;;;;6.92;100.00;101186.75;4994733;28;20004;-77
2023/01/12 03:09:01;;;;;;;;;;;;;;;6.90;100.00;101214.91;5008675;28;19917;-77
2023/01/12 03:11:26;;;;;;;;;;;;;;;6.88;100.00;101232.56;4995356;28;20052;-77
2023/01/12 03:14:01;;;;;;;;;;;;;;;6.88;100.00;101250.94;4992247;28;19928;-77
2023/01/12 03:16:30;;;;;;;;;;;;;;;6.86;100.00;101265.09;5002362;28;19961;-77
2023/01/12 03:19:08;;;;;;;;;;;;;;;6.85;100.00;101285.25;5025006;28;19918;-77
2023/01/12 03:21:36;;;;;;;;;;;;;;;6.80;100.00;101317.09;4993994;28;20338;-78
2023/01/12 03:24:04;;;;;;;;;;;;;;;6.83;100.00;101334.38;4994511;28;19965;-77
2023/01/12 03:26:31;;;;;;;;;;;;;;;6.84;100.00;101357.06;4993581;28;19972;-78
2023/01/12 03:29:18;;;;;;;;;;;;;;;6.87;100.00;101390.09;5024280;28;19992;-78
2023/01/12 03:31:44;;;;;;;;;;;;;;;6.90;100.00;101413.47;4993802;28;20004;-78
2023/01/12 03:34:09;;;;;;;;;;;;;;;6.93;100.00;101434.25;4993457;28;20040;-78
2023/01/12 03:36:48;;;;;;;;;;;;;;;6.95;100.00;101448.94;4993644;28;19924;-77
2023/01/12 03:39:32;;;;;;;;;;;;;;;6.99;100.00;101467.94;4994091;28;19918;-78
2023/01/12 03:42:00;;;;;;;;;;;;;;;7.00;100.00;101472.22;4993698;28;19988;-77
2023/01/12 03:44:29;;;;;;;;;;;;;;;7.00;100.00;101494.03;4993871;28;19928;-78
2023/01/12 03:46:59;;;;;;;;;;;;;;;7.02;100.00;101501.00;5025689;28;19917;-77
2023/01/12 03:49:24;;;;;;;;;;;;;;;7.01;100.00;101513.25;4994249;28;19918;-78
2023/01/12 03:51:50;;;;;;;;;;;;;;;7.03;100.00;101531.53;4994543;28;19924;-78
2023/01/12 03:54:17;;;;;;;;;;;;;;;7.04;100.00;101552.41;4994744;28;19913;-78
2023/01/12 03:56:44;;;;;;;;;;;;;;;7.03;100.00;101561.22;4993910;28;20484;-78
2023/01/12 03:59:10;;;;;;;;;;;;;;;7.05;100.00;101569.00;4993072;28;19947;-78
2023/01/12 04:01:35;;;;;;;;;;;;;;;7.04;100.00;101589.16;4997250;28;20318;-78
2023/01/12 04:04:01;;;;;;;;;;;;;;;7.04;100.00;101593.59;5029717;28;19921;-78
2023/01/12 04:06:26;;;;;;;;;;;;;;;7.04;100.00;101607.53;4997880;28;19917;-78
2023/01/12 04:08:52;;;;;;;;;;;;;;;7.03;100.00;101624.22;4996810;28;20289;-78
2023/01/12 04:14:01;;;;;;;;;;;;;;;7.06;100.00;101662.56;4996857;28;19964;-77
2023/01/12 04:16:26;;;;;;;;;;;;;;;7.09;100.00;101678.06;4998183;28;19921;-77
2023/01/12 04:18:51;;;;;;;;;;;;;;;7.15;100.00;101693.41;4997249;28;19983;-77
2023/01/12 04:24:00;;;;;;;;;;;;;;;7.18;100.00;101682.69;4997518;28;19948;-77
2023/01/12 04:26:26;;;;;;;;;;;;;;;7.21;100.00;101679.84;4998530;28;20590;-77
2023/01/12 04:28:51;;;;;;;;;;;;;;;7.22;100.00;101681.53;5011814;28;19921;-77
2023/01/12 04:31:16;;;;;;;;;;;;;;;7.24;100.00;101663.88;4996661;28;19925;-77
2023/01/12 04:33:42;;;;;;;;;;;;;;;7.28;100.00;101654.84;4997696;28;19925;-77
2023/01/12 04:36:10;;;;;;;;;;;;;;;7.28;100.00;101639.09;4997441;28;19925;-78
2023/01/12 04:38:35;;;;;;;;;;;;;;;7.28;100.00;101627.75;4997828;28;19918;-78
2023/01/12 04:41:00;;;;;;;;;;;;;;;7.27;100.00;101621.63;4995884;28;19929;-77
2023/01/12 04:43:25;;;;;;;;;;;;;;;7.27;100.00;101607.69;4995817;28;19925;-77
2023/01/12 04:45:51;;;;;;;;;;;;;;;7.25;100.00;101602.56;4996265;28;19921;-77
2023/01/12 04:48:18;;;;;;;;;;;;;;;7.24;100.00;101602.66;4996347;28;19922;-77
2023/01/12 04:50:43;;;;;;;;;;;;;;;7.21;100.00;101601.09;4996391;28;20387;-78
2023/01/12 04:53:10;;;;;;;;;;;;;;;7.13;100.00;101590.28;4998760;28;19913;-77
2023/01/12 04:55:36;;;;;;;;;;;;;;;7.18;100.00;101580.28;5027484;28;19926;-77
2023/01/12 04:58:01;;;;;;;;;;;;;;;7.18;100.00;101582.91;4997316;28;19918;-78
2023/01/12 05:00:26;;;;;;;;;;;;;;;7.16;100.00;101572.56;4996424;28;20384;-78
2023/01/12 05:03:01;;;;;;;;;;;;;;;7.11;100.00;101551.03;4997405;28;19924;-78
2023/01/12 05:05:30;;;;;;;;;;;;;;;7.09;100.00;101533.72;4996867;28;19996;-79
2023/01/12 05:10:41;;;;;;;;;;;;;;;7.05;100.00;101477.13;5006351;28;20388;-75
2023/01/12 05:13:06;;;;;;;;;;;;;;;7.05;100.00;101453.50;4997057;28;19926;-78
2023/01/12 05:15:32;;;;;;;;;;;;;;;7.05;100.00;101422.00;4997997;28;19918;-77
2023/01/12 05:17:57;;;;;;;;;;;;;;;7.06;100.00;101400.09;4997181;28;20369;-77
2023/01/12 05:20:22;;;;;;;;;;;;;;;7.04;100.00;101363.44;4996679;28;19928;-77
2023/01/12 05:22:49;;;;;;;;;;;;;;;7.04;100.00;101339.00;5028263;28;19937;-77
2023/01/12 05:25:14;;;;;;;;;;;;;;;7.05;100.00;101327.53;4997838;28;19917;-77
2023/01/12 05:27:39;;;;;;;;;;;;;;;7.05;100.00;101322.28;4997016;28;19921;-77
2023/01/12 05:30:05;;;;;;;;;;;;;;;7.04;100.00;101320.63;5011180;28;20557;-77
2023/01/12 05:32:34;;;;;;;;;;;;;;;7.01;100.00;101316.41;4996206;28;19953;-76
2023/01/12 05:35:00;;;;;;;;;;;;;;;7.00;100.00;101323.47;5027474;28;19924;-78
2023/01/12 05:37:25;;;;;;;;;;;;;;;6.99;100.00;101316.56;4996289;28;19922;-77
2023/01/12 05:39:50;;;;;;;;;;;;;;;6.99;100.00;101313.94;4995150;28;19921;-78
2023/01/12 05:44:59;;;;;;;;;;;;;;;6.94;100.00;101321.28;4995554;28;19932;-77
2023/01/12 05:47:24;;;;;;;;;;;;;;;6.94;100.00;101336.22;4995955;28;19921;-77
2023/01/12 05:49:49;;;;;;;;;;;;;;;6.93;100.00;101332.75;4994961;28;19922;-77
2023/01/12 05:52:15;;;;;;;;;;;;;;;6.91;100.00;101332.03;4997247;28;19922;-78
2023/01/12 05:54:40;;;;;;;;;;;;;;;6.92;100.00;101333.69;4995968;28;19972;-77
2023/01/12 05:57:05;;;;;;;;;;;;;;;6.89;100.00;101344.41;4996501;28;20021;-78
2023/01/12 05:59:30;;;;;;;;;;;;;;;6.86;100.00;101360.41;4995786;28;19922;-78
2023/01/12 06:01:56;;;;;;;;;;;;;;;6.84;100.00;101374.56;5010200;28;19921;-78
2023/01/12 06:04:21;;;;;;;;;;;;;;;6.84;100.00;101396.41;4995331;28;19929;-78
2023/01/12 06:06:47;;;;;;;;;;;;;;;6.86;100.00;101410.25;4997404;28;19922;-78
2023/01/12 06:09:12;;;;;;;;;;;;;;;6.87;100.00;101401.41;4994120;28;19921;-77
2023/01/12 06:14:21;;;;;;;;;;;;;;;6.86;100.00;101447.00;4994216;28;19932;-77
2023/01/12 06:16:47;;;;;;;;;;;;;;;6.85;100.00;101458.41;4995504;28;19925;-77
2023/01/12 06:19:12;;;;;;;;;;;;;;;6.88;100.00;101480.97;4995293;28;19917;-77
2023/01/12 06:21:37;;;;;;;;;;;;;;;6.88;100.00;101480.97;4994219;28;20301;-78
2023/01/12 06:24:03;;;;;;;;;;;;;;;6.94;100.00;101546.97;4994102;28;19934;-77
2023/01/12 06:26:28;;;;;;;;;;;;;;;6.93;100.00;101550.56;5026019;28;19914;-77
2023/01/12 06:28:54;;;;;;;;;;;;;;;6.94;100.00;101559.25;4994996;28;19921;-77
2023/01/12 06:31:19;;;;;;;;;;;;;;;6.97;100.00;101596.63;5008475;28;20386;-77
2023/01/12 06:33:44;;;;;;;;;;;;;;;6.98;100.00;101614.03;5026337;28;19933;-77
2023/01/12 06:36:10;;;;;;;;;;;;;;;7.03;100.00;101647.00;4994938;28;20001;-77
2023/01/12 06:38:39;;;;;;;;;;;;;;;7.05;100.00;101658.25;4995420;28;19913;-77
2023/01/12 06:41:05;;;;;;;;;;;;;;;7.05;100.00;101669.56;4995292;28;19918;-77
2023/01/12 06:43:30;;;;;;;;;;;;;;;7.14;100.00;101699.59;5025671;28;19918;-78
2023/01/12 06:45:56;;;;;;;;;;;;;;;7.18;100.00;101724.69;4995591;28;19925;-78
2023/01/12 06:48:22;;;;;;;;;;;;;;;7.22;100.00;101752.41;4994156;28;19928;-78
2023/01/12 06:50:48;;;;;;;;;;;;;;;7.25;100.00;101749.59;4993993;28;19983;-78
2023/01/12 06:53:13;;;;;;;;;;;;;;;7.33;100.00;101793.69;4995269;28;19926;-78
2023/01/12 06:55:38;;;;;;;;;;;;;;;7.40;100.00;101816.81;4993805;28;19980;-78
2023/01/12 06:58:04;;;;;;;;;;;;;;;7.45;100.00;101829.63;4995372;28;19922;-78
2023/01/12 07:00:30;;;;;;;;;;;;;;;7.46;100.00;101852.31;4994285;28;20011;-78
2023/01/12 07:02:55;;;;;;;;;;;;;;;7.53;100.00;101871.94;4994662;28;19949;-78
2023/01/12 07:05:21;;;;;;;;;;;;;;;7.56;100.00;101889.31;4993904;28;19918;-77
2023/01/12 07:07:46;;;;;;;;;;;;;;;7.61;100.00;101919.56;4995161;28;20471;-79
2023/01/12 07:10:12;;;;;;;;;;;;;;;7.65;100.00;101929.88;4994900;28;20001;-76
2023/01/12 07:12:37;;;;;;;;;;;;;;;7.69;100.00;101950.56;4993596;28;19913;-78
2023/01/12 07:15:03;;;;;;;;;;;;;;;7.76;100.00;101990.41;4994487;28;19941;-78
2023/01/12 07:17:28;;;;;;;;;;;;;;;7.76;100.00;102003.56;4995396;28;19925;-78
2023/01/12 07:19:54;;;;;;;;;;;;;;;7.80;100.00;102021.63;4994104;28;20491;-79
2023/01/12 07:22:19;;;;;;;;;;;;;;;7.87;100.00;102037.00;4994180;28;19922;-78
2023/01/12 07:24:44;;;;;;;;;;;;;;;7.95;100.00;102080.22;5010317;28;19926;-77
2023/01/12 07:27:09;;;;;;;;;;;;;;;8.01;100.00;102089.47;4994284;28;19984;-77
2023/01/12 07:29:35;;;;;;;;;;;;;;;8.07;100.00;102109.28;4994120;28;19937;-77
2023/01/12 07:32:00;;;;;;;;;;;;;;;8.15;100.00;102143.78;4992057;28;19954;-78
2023/01/12 07:34:26;;;;;;;;;;;;;;;8.20;100.00;102168.81;5009683;28;19972;-77
2023/01/12 07:36:51;;;;;;;;;;;;;;;8.27;100.00;102179.78;4998013;28;19913;-78
2023/01/12 07:39:16;;;;;;;;;;;;;;;8.35;100.00;102189.81;4999038;28;19928;-77
2023/01/12 07:44:26;;;;;;;;;;;;;;;8.46;100.00;102237.31;4998681;28;19928;-77
2023/01/12 07:46:51;;;;;;;;;;;;;;;8.47;100.00;102254.78;5013287;28;20361;-78
2023/01/12 07:49:16;;;;;;;;;;;;;;;8.63;100.00;102275.66;4997759;28;19969;-77
2023/01/12 07:51:41;;;;;;;;;;;;;;;8.65;100.00;102279.88;4998077;28;19925;-77
2023/01/12 07:54:07;;;;;;;;;;;;;;;8.62;100.00;102293.25;4998334;28;20710;-78
2023/01/12 07:56:32;;;;;;;;;;;;;;;8.67;100.00;102295.56;4997547;28;19924;-77
2023/01/12 07:58:57;;;;;;;;;;;;;;;8.71;100.00;102326.00;4996180;28;20321;-77
2023/01/12 08:01:23;;;;;;;;;;;;;;;8.77;100.00;102330.84;4997053;28;20322;-78
2023/01/12 08:03:48;;;;;;;;;;;;;;;8.80;100.00;102329.81;4997636;28;19918;-78
2023/01/12 08:06:14;;;;;;;;;;;;;;;8.88;100.00;102368.78;5005832;28;19953;-77
2023/01/12 08:08:39;;;;;;;;;;;;;;;8.87;100.00;102367.94;4999013;28;19943;-77
2023/01/12 08:11:06;;;;;;;;;;;;;;;8.90;100.00;102380.91;5028916;28;20028;-78
2023/01/12 08:13:31;;;;;;;;;;;;;;;8.93;100.00;102387.75;4995786;28;19928;-78
2023/01/12 08:16:03;;;;;;;;;;;;;;;8.96;100.00;102388.41;4997888;28;19917;-78
2023/01/12 08:18:31;;;;;;;;;;;;;;;9.00;100.00;102410.13;4997373;28;20390;-77
2023/01/12 08:20:59;;;;;;;;;;;;;;;9.01;100.00;102417.91;4996297;28;19952;-77
2023/01/12 08:23:27;;;;;;;;;;;;;;;9.03;100.00;102426.53;4997751;28;19956;-79
2023/01/12 08:25:55;;;;;;;;;;;;;;;9.04;100.00;102425.63;4996101;28;20281;-77
2023/01/12 08:28:27;;;;;;;;;;;;;;;9.12;100.00;102437.44;4997313;28;20404;-77
2023/01/12 08:30:52;;;;;;;;;;;;;;;9.10;100.00;102440.16;4995738;28;19948;-77
2023/01/12 08:33:18;;;;;;;;;;;;;;;9.16;100.00;102436.28;4996312;28;19941;-78
2023/01/12 08:35:45;;;;;;;;;;;;;;;9.20;100.00;102435.13;4996850;28;19921;-77
2023/01/12 08:38:11;;;;;;;;;;;;;;;9.24;100.00;102433.97;4996779;28;19953;-77
2023/01/12 08:44:00;;;;;;;;;;;;;;;9.29;100.00;102426.59;4997684;28;19920;-77
2023/01/12 08:46:08;;;;;;;;;;;;;;;9.32;100.00;102404.47;5022350;28;20025;-77
2023/01/12 08:48:34;;;;;;;;;;;;;;;9.33;100.00;102401.75;4997091;28;19922;-77
2023/01/12 08:51:00;;;;;;;;;;;;;;;9.35;100.00;102368.22;5004565;28;19921;-77
2023/01/12 08:53:25;;;;;;;;;;;;;;;9.37;100.00;102366.34;4997082;28;21047;-77
2023/01/12 08:55:53;;;;;;;;;;;;;;;9.38;100.00;102346.94;4997123;28;19924;-77
2023/01/12 08:58:18;;;;;;;;;;;;;;;9.38;100.00;102331.13;5010979;28;20028;-77
2023/01/12 09:00:44;;;;;;;;;;;;;;;9.39;100.00;102310.91;4996107;28;20382;-78
2023/01/12 09:03:09;;;;;;;;;;;;;;;9.41;100.00;102299.31;4995348;28;20024;-77
2023/01/12 09:05:34;;;;;;;;;;;;;;;9.44;100.00;102303.50;4998092;28;20021;-78
2023/01/12 09:08:00;;;;;;;;;;;;;;;9.47;100.00;102279.56;4998189;28;19921;-78
2023/01/12 09:10:25;;;;;;;;;;;;;;;9.50;100.00;102245.09;4997099;28;20369;-78
2023/01/12 09:12:50;;;;;;;;;;;;;;;9.53;100.00;102238.78;4995711;28;20012;-77
2023/01/12 09:15:15;;;;;;;;;;;;;;;9.54;100.00;102209.69;4980992;28;20374;-77
2023/01/12 09:17:42;;;;;;;;;;;;;;;9.59;100.00;102194.38;4996381;28;19948;-77
2023/01/12 09:20:07;;;;;;;;;;;;;;;9.58;100.00;102153.16;4996537;28;19925;-77
2023/01/12 09:22:32;;;;;;;;;;;;;;;9.56;100.00;102139.25;4996080;28;19925;-77
2023/01/12 09:24:58;;;;;;;;;;;;;;;9.55;100.00;102110.38;4994239;28;19925;-79
2023/01/12 09:27:23;;;;;;;;;;;;;;;9.53;100.00;102093.81;4997314;28;19976;-79
2023/01/12 09:29:48;;;;;;;;;;;;;;;9.54;100.00;102077.03;4996046;28;19973;-77
2023/01/12 09:32:13;;;;;;;;;;;;;;;9.54;100.00;102059.47;5027275;28;20627;-77
2023/01/12 09:34:39;;;;;;;;;;;;;;;9.56;100.00;102054.06;4995752;28;19922;-77
2023/01/12 09:37:04;;;;;;;;;;;;;;;9.56;100.00;102054.06;5011737;28;20230;-77
2023/01/12 09:39:29;;;;;;;;;;;;;;;9.54;100.00;102034.88;4995470;28;19918;-77
2023/01/12 09:47:46;;;;;;;;;;;;;;;9.72;100.00;102024.78;4996942;28;20099;-77
2023/01/12 09:50:13;;;;;;;;;;;;;;;9.75;100.00;102019.25;4995748;28;19929;-77
2023/01/12 09:52:42;;;;;;;;;;;;;;;9.72;100.00;101996.59;4995392;28;20675;-77
2023/01/12 09:55:28;;;;;;;;;;;;;;;9.71;100.00;101979.09;4994202;28;19972;-78
2023/01/12 09:58:16;;;;;;;;;;;;;;;9.73;100.00;101966.63;4994660;28;19921;-78
2023/01/12 10:00:42;;;;;;;;;;;;;;;9.70;100.00;101955.50;4988256;28;19917;-77
2023/01/12 10:03:13;;;;;;;;;;;;;;;9.68;100.00;101937.16;4994838;28;19921;-78
2023/01/12 10:05:49;;;;;;;;;;;;;;;9.70;100.00;101921.25;4995093;28;20381;-78
2023/01/12 10:08:24;;;;;;;;;;;;;;;9.76;100.00;101900.50;4995767;28;20418;-78
2023/01/12 10:11:12;;;;;;;;;;;;;;;10.21;100.00;101933.94;5010696;28;20369;-78
2023/01/12 10:13:50;;;;;;;;;;;;;;;10.67;100.00;101944.38;4976768;28;19922;-78
2023/01/12 10:16:30;;;;;;;;;;;;;;;10.44;100.00;101882.03;4995161;28;20476;-78
2023/01/12 10:18:58;;;;;;;;;;;;;;;10.30;100.00;101814.53;4995943;28;19944;-78
2023/01/12 10:21:24;;;;;;;;;;;;;;;10.22;100.00;101757.06;4995525;28;19918;-79
2023/01/12 10:23:52;;;;;;;;;;;;;;;10.13;100.00;101713.00;4993588;28;19977;-78
2023/01/12 10:26:21;;;;;;;;;;;;;;;10.06;100.00;101677.50;4994687;28;20016;-77
2023/01/12 10:28:48;;;;;;;;;;;;;;;10.17;100.00;101647.59;4994627;28;20016;-77
2023/01/12 10:31:20;;;;;;;;;;;;;;;10.11;100.00;101596.22;4996184;28;20706;-77
2023/01/12 10:34:08;;;;;;;;;;;;;;;10.14;100.00;101568.75;4995938;28;19925;-77
2023/01/12 10:36:35;;;;;;;;;;;;;;;10.52;100.00;101556.75;5027459;28;20012;-77
2023/01/12 10:39:03;;;;;;;;;;;;;;;11.33;100.00;101584.78;4994149;28;19918;-77
2023/01/12 10:41:32;;;;;;;;;;;;;;;11.26;100.00;101499.13;4993799;28;19961;-78
2023/01/12 10:43:57;;;;;;;;;;;;;;;11.03;100.00;101397.34;4993878;28;20301;-78
2023/01/12 10:46:25;;;;;;;;;;;;;;;10.86;100.00;101295.88;4995025;28;19914;-77
2023/01/12 10:49:11;;;;;;;;;;;;;;;10.86;100.00;101232.50;4995002;28;19925;-77
2023/01/12 10:51:47;;;;;;;;;;;;;;;10.82;100.00;101162.47;4994171;28;20392;-77
2023/01/12 10:54:20;;;;;;;;;;;;;;;10.73;100.00;101111.38;4993640;28;19918;-77
2023/01/12 10:56:56;;;;;;;;;;;;;;;10.64;100.00;101059.44;4994226;28;20381;-78
2023/01/12 10:59:24;;;;;;;;;;;;;;;10.62;100.00;101013.88;4994926;28;19925;-78
2023/01/12 11:01:50;;;;;;;;;;;;;;;10.67;100.00;100986.09;4994008;28;19913;-77
2023/01/12 11:04:19;;;;;;;;;;;;;;;10.81;100.00;100973.38;4994940;28;19956;-77
2023/01/12 11:06:54;;;;;;;;;;;;;;;10.95;100.00;100954.34;5025352;28;19917;-77
2023/01/12 11:09:24;;;;;;;;;;;;;;;11.03;100.00;100943.88;4994905;28;19914;-77
2023/01/12 11:11:56;;;;;;;;;;;;;;;11.00;100.00;100898.47;4994328;28;19925;-77
2023/01/12 11:14:30;;;;;;;;;;;;;;;11.04;100.00;100882.16;4994357;28;19922;-77
2023/01/12 11:17:01;;;;;;;;;;;;;;;11.02;100.00;100870.09;4995169;28;20054;-77
2023/01/12 11:19:30;;;;;;;;;;;;;;;10.97;100.00;100852.03;4995222;28;19913;-77
2023/01/12 11:22:16;;;;;;;;;;;;;;;11.18;100.00;100835.06;5026054;28;20489;-78
2023/01/12 11:24:41;;;;;;;;;;;;;;;11.33;100.00;100807.09;4981924;28;19937;-77
2023/01/12 11:27:21;;;;;;;;;;;;;;;11.33;100.00;100776.19;4994133;28;19917;-78
2023/01/12 11:29:53;;;;;;;;;;;;;;;11.29;100.00;100748.44;4993572;28;20270;-77
2023/01/12 11:32:31;;;;;;;;;;;;;;;11.17;100.00;100722.44;4994571;28;19957;-77
2023/01/12 11:34:59;;;;;;;;;;;;;;;11.07;100.00;100702.25;5026187;28;20044;-77
2023/01/12 11:37:24;;;;;;;;;;;;;;;11.15;100.00;100703.28;4993665;28;19960;-79
2023/01/12 11:39:55;;;;;;;;;;;;;;;11.15;100.00;100695.34;4994414;28;19968;-78
2023/01/12 11:45:19;;;;;;;;;;;;;;;10.88;100.00;100678.72;4993673;28;19980;-78
2023/01/12 11:47:48;;;;;;;;;;;;;;;10.75;100.00;100678.28;4994198;28;20511;-78
2023/01/12 11:50:31;;;;;;;;;;;;;;;10.70;100.00;100716.53;4995922;28;20300;-78
2023/01/12 11:52:57;;;;;;;;;;;;;;;10.66;100.00;100751.31;4993671;28;19922;-77
2023/01/12 11:55:41;;;;;;;;;;;;;;;10.58;100.00;100778.47;4994205;28;19980;-78
2023/01/12 11:58:09;;;;;;;;;;;;;;;10.56;100.00;100822.66;4994212;28;20349;-79
2023/01/12 12:00:38;;;;;;;;;;;;;;;10.57;100.00;100868.34;4993444;28;19943;-79
2023/01/12 12:03:26;;;;;;;;;;;;;;;10.44;100.00;100888.00;4994506;28;20013;-78
2023/01/12 12:06:07;;;;;;;;;;;;;;;10.43;100.00;100933.84;4995270;28;20416;-78
2023/01/12 12:08:41;;;;;;;;;;;;;;;10.31;100.00;100957.94;4994011;28;19953;-78
2023/01/12 12:11:18;;;;;;;;;;;;;;;10.20;100.00;100972.91;4993472;28;19922;-77
2023/01/12 12:13:52;;;;;;;;;;;;;;;10.22;100.00;101001.81;4993234;28;19933;-77
2023/01/12 12:16:18;;;;;;;;;;;;;;;10.24;100.00;101031.50;4994351;28;20418;-78
2023/01/12 12:18:59;;;;;;;;;;;;;;;10.19;100.00;101042.50;4993816;28;19962;-78
2023/01/12 12:21:24;;;;;;;;;;;;;;;10.21;100.00;101069.56;4995590;28;19922;-77
2023/01/12 12:23:56;;;;;;;;;;;;;;;10.21;100.00;101076.63;4998333;28;19973;-77
2023/01/12 12:26:37;;;;;;;;;;;;;;;10.31;100.00;101095.09;4996902;28;19918;-77
2023/01/12 12:29:02;;;;;;;;;;;;;;;10.37;100.00;101110.38;4996796;28;20355;-77
2023/01/12 12:31:33;;;;;;;;;;;;;;;10.47;100.00;101121.72;4997304;28;20013;-78
2023/01/12 12:33:58;;;;;;;;;;;;;;;10.58;100.00;101142.69;4996734;28;20016;-78
2023/01/12 12:36:24;;;;;;;;;;;;;;;10.63;100.00;101135.16;4997367;28;20042;-78
2023/01/12 12:39:08;;;;;;;;;;;;;;;10.85;100.00;101130.50;4998222;28;20019;-78
2023/01/12 12:47:15;;;;;;;;;;;;;;;11.19;100.00;101038.31;4996497;28;19941;-77
2023/01/12 12:49:40;;;;;;;;;;;;;;;11.19;100.00;100982.00;4997425;28;19917;-78
2023/01/12 12:52:09;;;;;;;;;;;;;;;11.17;100.00;100960.19;4997215;28;19941;-79
2023/01/12 12:54:34;;;;;;;;;;;;;;;11.11;100.00;100927.28;4996813;28;19987;-78
2023/01/12 12:57:02;;;;;;;;;;;;;;;11.04;100.00;100882.16;4996276;28;19921;-78
2023/01/12 12:59:31;;;;;;;;;;;;;;;10.99;100.00;100860.66;4997206;28;20015;-79
2023/01/12 13:01:58;;;;;;;;;;;;;;;10.91;100.00;100837.66;4996099;28;19925;-79
2023/01/12 13:04:41;;;;;;;;;;;;;;;10.89;100.00;100815.03;4996112;28;19920;-78
2023/01/12 13:07:13;;;;;;;;;;;;;;;10.86;100.00;100807.41;4997115;28;19913;-77
2023/01/12 13:09:39;;;;;;;;;;;;;;;10.89;100.00;100807.13;4997312;28;19917;-78
2023/01/12 13:12:04;;;;;;;;;;;;;;;10.79;100.00;100809.00;4997356;28;19927;-79
2023/01/12 13:14:33;;;;;;;;;;;;;;;10.74;100.00;100811.28;4995973;28;19961;-77
2023/01/12 13:17:04;;;;;;;;;;;;;;;10.69;100.00;100820.47;5026832;28;20012;-77
2023/01/12 13:19:35;;;;;;;;;;;;;;;10.57;100.00;100842.78;4995944;28;19917;-80
2023/01/12 13:22:19;;;;;;;;;;;;;;;10.60;100.00;100863.59;4996260;28;19944;-77
2023/01/12 13:24:44;;;;;;;;;;;;;;;10.62;100.00;100877.47;5011654;28;20392;-78